sensor_id;sensor_type;location;lat;lon;timestamp;P1;durP1;ratioP1;P2;durP2;ratioP2
64982;SDS011;69426;28.138;-15.436;2023-07-24T00:01:45;9.07;;;2.70;;
64982;SDS011;69426;28.138;-15.436;2023-07-24T00:04:10;6.20;;;2.50;;
64982;SDS011;69426;28.138;-15.436;2023-07-24T00:06:36;6.30;;;2.50;;
64982;SDS011;69426;28.138;-15.436;2023-07-24T00:09:01;4.50;;;2.47;;
64982;SDS011;69426;28.138;-15.436;2023-07-24T00:11:26;4.25;;;2.97;;
64982;SDS011;69426;28.138;-15.436;2023-07-24T00:13:51;3.70;;;2.53;;
64982;SDS011;69426;28.138;-15.436;2023-07-24T00:16:17;4.60;;;2.90;;
64982;SDS011;69426;28.138;-15.436;2023-07-24T00:18:42;4.10;;;2.60;;
64982;SDS011;69426;28.138;-15.436;2023-07-24T00:21:07;4.00;;;2.37;;
64982;SDS011;69426;28.138;-15.436;2023-07-24T00:23:33;4.15;;;2.70;;
64982;SDS011;69426;28.138;-15.436;2023-07-24T00:25:58;3.77;;;2.60;;
64982;SDS011;69426;28.138;-15.436;2023-07-24T00:28:23;3.93;;;2.47;;
64982;SDS011;69426;28.138;-15.436;2023-07-24T00:30:48;6.30;;;2.70;;
64982;SDS011;69426;28.138;-15.436;2023-07-24T00:33:14;4.30;;;2.80;;
64982;SDS011;69426;28.138;-15.436;2023-07-24T00:35:39;3.67;;;2.90;;
64982;SDS011;69426;28.138;-15.436;2023-07-24T00:38:04;5.67;;;2.80;;
64982;SDS011;69426;28.138;-15.436;2023-07-24T00:40:29;4.57;;;2.93;;
64982;SDS011;69426;28.138;-15.436;2023-07-24T00:42:54;3.20;;;2.63;;
64982;SDS011;69426;28.138;-15.436;2023-07-24T00:45:20;7.53;;;2.53;;
64982;SDS011;69426;28.138;-15.436;2023-07-24T00:47:46;6.25;;;2.90;;
64982;SDS011;69426;28.138;-15.436;2023-07-24T00:50:11;5.70;;;2.92;;
64982;SDS011;69426;28.138;-15.436;2023-07-24T00:52:37;4.18;;;2.83;;
64982;SDS011;69426;28.138;-15.436;2023-07-24T00:55:02;4.03;;;2.70;;
64982;SDS011;69426;28.138;-15.436;2023-07-24T00:57:28;3.17;;;2.42;;
64982;SDS011;69426;28.138;-15.436;2023-07-24T00:59:53;4.23;;;2.63;;
64982;SDS011;69426;28.138;-15.436;2023-07-24T01:02:19;4.32;;;2.60;;
64982;SDS011;69426;28.138;-15.436;2023-07-24T01:04:45;5.60;;;3.10;;
64982;SDS011;69426;28.138;-15.436;2023-07-24T01:07:10;8.38;;;3.20;;
64982;SDS011;69426;28.138;-15.436;2023-07-24T01:09:36;5.28;;;2.75;;
64982;SDS011;69426;28.138;-15.436;2023-07-24T01:12:13;4.60;;;2.90;;
64982;SDS011;69426;28.138;-15.436;2023-07-24T01:14:52;5.93;;;2.72;;
64982;SDS011;69426;28.138;-15.436;2023-07-24T01:17:20;4.78;;;3.00;;
64982;SDS011;69426;28.138;-15.436;2023-07-24T01:19:49;3.75;;;2.70;;
64982;SDS011;69426;28.138;-15.436;2023-07-24T01:27:20;4.20;;;3.10;;
64982;SDS011;69426;28.138;-15.436;2023-07-24T01:29:46;4.95;;;2.70;;
64982;SDS011;69426;28.138;-15.436;2023-07-24T01:32:11;5.80;;;2.80;;
64982;SDS011;69426;28.138;-15.436;2023-07-24T01:34:37;4.90;;;3.03;;
64982;SDS011;69426;28.138;-15.436;2023-07-24T01:37:02;3.67;;;2.83;;
64982;SDS011;69426;28.138;-15.436;2023-07-24T01:39:27;4.15;;;3.00;;
64982;SDS011;69426;28.138;-15.436;2023-07-24T01:41:53;4.68;;;2.70;;
64982;SDS011;69426;28.138;-15.436;2023-07-24T01:44:18;6.10;;;3.00;;
64982;SDS011;69426;28.138;-15.436;2023-07-24T01:46:43;3.17;;;2.47;;
64982;SDS011;69426;28.138;-15.436;2023-07-24T01:49:10;5.45;;;2.80;;
64982;SDS011;69426;28.138;-15.436;2023-07-24T01:51:35;3.83;;;2.73;;
64982;SDS011;69426;28.138;-15.436;2023-07-24T01:54:00;3.97;;;2.83;;
64982;SDS011;69426;28.138;-15.436;2023-07-24T01:56:25;3.37;;;2.60;;
64982;SDS011;69426;28.138;-15.436;2023-07-24T01:58:50;4.40;;;3.00;;
64982;SDS011;69426;28.138;-15.436;2023-07-24T02:01:16;3.90;;;2.83;;
64982;SDS011;69426;28.138;-15.436;2023-07-24T02:03:41;4.10;;;2.50;;
64982;SDS011;69426;28.138;-15.436;2023-07-24T02:06:06;4.03;;;2.83;;
64982;SDS011;69426;28.138;-15.436;2023-07-24T02:08:31;4.47;;;2.87;;
64982;SDS011;69426;28.138;-15.436;2023-07-24T02:10:57;3.17;;;2.60;;
64982;SDS011;69426;28.138;-15.436;2023-07-24T02:13:22;3.93;;;2.83;;
64982;SDS011;69426;28.138;-15.436;2023-07-24T02:15:47;4.47;;;3.10;;
64982;SDS011;69426;28.138;-15.436;2023-07-24T02:18:12;3.85;;;2.80;;
64982;SDS011;69426;28.138;-15.436;2023-07-24T02:20:38;5.27;;;2.80;;
64982;SDS011;69426;28.138;-15.436;2023-07-24T02:23:03;3.33;;;2.67;;
64982;SDS011;69426;28.138;-15.436;2023-07-24T02:25:28;3.83;;;2.73;;
64982;SDS011;69426;28.138;-15.436;2023-07-24T02:27:53;3.83;;;2.70;;
64982;SDS011;69426;28.138;-15.436;2023-07-24T02:30:19;3.70;;;2.77;;
64982;SDS011;69426;28.138;-15.436;2023-07-24T02:32:44;3.87;;;2.57;;
64982;SDS011;69426;28.138;-15.436;2023-07-24T02:35:09;3.60;;;2.57;;
64982;SDS011;69426;28.138;-15.436;2023-07-24T02:37:34;4.20;;;2.77;;
64982;SDS011;69426;28.138;-15.436;2023-07-24T02:40:00;3.73;;;2.67;;
64982;SDS011;69426;28.138;-15.436;2023-07-24T02:42:25;3.70;;;2.70;;
64982;SDS011;69426;28.138;-15.436;2023-07-24T02:44:50;4.10;;;2.97;;
64982;SDS011;69426;28.138;-15.436;2023-07-24T02:47:15;11.00;;;2.97;;
64982;SDS011;69426;28.138;-15.436;2023-07-24T02:49:40;4.30;;;3.00;;
64982;SDS011;69426;28.138;-15.436;2023-07-24T02:52:06;4.03;;;2.70;;
64982;SDS011;69426;28.138;-15.436;2023-07-24T02:54:31;8.27;;;2.67;;
64982;SDS011;69426;28.138;-15.436;2023-07-24T02:56:56;6.22;;;2.78;;
64982;SDS011;69426;28.138;-15.436;2023-07-24T02:59:23;4.78;;;2.83;;
64982;SDS011;69426;28.138;-15.436;2023-07-24T03:01:48;5.05;;;2.90;;
64982;SDS011;69426;28.138;-15.436;2023-07-24T03:04:13;4.38;;;3.00;;
64982;SDS011;69426;28.138;-15.436;2023-07-24T03:06:39;5.33;;;3.03;;
64982;SDS011;69426;28.138;-15.436;2023-07-24T03:09:04;4.30;;;3.08;;
64982;SDS011;69426;28.138;-15.436;2023-07-24T03:11:29;5.53;;;3.40;;
64982;SDS011;69426;28.138;-15.436;2023-07-24T03:13:54;7.40;;;2.97;;
64982;SDS011;69426;28.138;-15.436;2023-07-24T03:16:20;3.77;;;2.83;;
64982;SDS011;69426;28.138;-15.436;2023-07-24T03:18:46;3.42;;;2.75;;
64982;SDS011;69426;28.138;-15.436;2023-07-24T03:21:11;5.72;;;3.00;;
64982;SDS011;69426;28.138;-15.436;2023-07-24T03:23:37;4.07;;;2.87;;
64982;SDS011;69426;28.138;-15.436;2023-07-24T03:26:02;6.15;;;2.80;;
64982;SDS011;69426;28.138;-15.436;2023-07-24T03:28:27;6.00;;;3.00;;
64982;SDS011;69426;28.138;-15.436;2023-07-24T03:30:53;3.88;;;2.78;;
64982;SDS011;69426;28.138;-15.436;2023-07-24T03:33:18;4.50;;;2.70;;
64982;SDS011;69426;28.138;-15.436;2023-07-24T03:35:43;5.17;;;3.00;;
64982;SDS011;69426;28.138;-15.436;2023-07-24T03:38:08;4.10;;;2.60;;
64982;SDS011;69426;28.138;-15.436;2023-07-24T03:40:34;5.97;;;2.97;;
64982;SDS011;69426;28.138;-15.436;2023-07-24T03:42:59;4.50;;;3.00;;
64982;SDS011;69426;28.138;-15.436;2023-07-24T03:45:24;4.00;;;2.87;;
64982;SDS011;69426;28.138;-15.436;2023-07-24T03:47:49;3.83;;;2.70;;
64982;SDS011;69426;28.138;-15.436;2023-07-24T03:50:15;3.87;;;2.67;;
64982;SDS011;69426;28.138;-15.436;2023-07-24T03:52:40;3.40;;;2.70;;
64982;SDS011;69426;28.138;-15.436;2023-07-24T03:55:05;5.47;;;3.13;;
64982;SDS011;69426;28.138;-15.436;2023-07-24T03:57:31;4.35;;;2.75;;
64982;SDS011;69426;28.138;-15.436;2023-07-24T03:59:56;2.80;;;2.30;;
64982;SDS011;69426;28.138;-15.436;2023-07-24T04:02:21;5.87;;;2.93;;
64982;SDS011;69426;28.138;-15.436;2023-07-24T04:04:47;4.35;;;2.88;;
64982;SDS011;69426;28.138;-15.436;2023-07-24T04:07:12;3.22;;;2.60;;
64982;SDS011;69426;28.138;-15.436;2023-07-24T04:09:37;4.67;;;3.10;;
64982;SDS011;69426;28.138;-15.436;2023-07-24T04:12:03;3.70;;;2.73;;
64982;SDS011;69426;28.138;-15.436;2023-07-24T04:14:28;4.80;;;2.95;;
64982;SDS011;69426;28.138;-15.436;2023-07-24T04:16:53;3.30;;;2.37;;
64982;SDS011;69426;28.138;-15.436;2023-07-24T04:19:20;5.70;;;2.50;;
64982;SDS011;69426;28.138;-15.436;2023-07-24T04:21:45;5.50;;;2.80;;
64982;SDS011;69426;28.138;-15.436;2023-07-24T04:24:11;4.25;;;2.60;;
64982;SDS011;69426;28.138;-15.436;2023-07-24T04:26:36;4.33;;;2.90;;
64982;SDS011;69426;28.138;-15.436;2023-07-24T04:29:01;3.53;;;2.70;;
64982;SDS011;69426;28.138;-15.436;2023-07-24T04:31:26;5.97;;;3.03;;
64982;SDS011;69426;28.138;-15.436;2023-07-24T04:33:52;5.00;;;3.00;;
64982;SDS011;69426;28.138;-15.436;2023-07-24T04:36:17;5.97;;;3.60;;
64982;SDS011;69426;28.138;-15.436;2023-07-24T04:38:42;4.00;;;3.07;;
64982;SDS011;69426;28.138;-15.436;2023-07-24T04:41:07;4.73;;;2.90;;
64982;SDS011;69426;28.138;-15.436;2023-07-24T04:43:33;9.10;;;3.10;;
64982;SDS011;69426;28.138;-15.436;2023-07-24T04:45:59;4.63;;;2.70;;
64982;SDS011;69426;28.138;-15.436;2023-07-24T04:48:25;4.70;;;3.08;;
64982;SDS011;69426;28.138;-15.436;2023-07-24T04:50:54;3.80;;;2.60;;
64982;SDS011;69426;28.138;-15.436;2023-07-24T04:53:20;4.55;;;2.58;;
64982;SDS011;69426;28.138;-15.436;2023-07-24T04:55:45;8.07;;;2.50;;
64982;SDS011;69426;28.138;-15.436;2023-07-24T04:58:10;4.43;;;2.72;;
64982;SDS011;69426;28.138;-15.436;2023-07-24T05:00:36;6.23;;;2.90;;
64982;SDS011;69426;28.138;-15.436;2023-07-24T05:03:01;6.20;;;2.80;;
64982;SDS011;69426;28.138;-15.436;2023-07-24T05:05:26;4.13;;;3.03;;
64982;SDS011;69426;28.138;-15.436;2023-07-24T05:07:51;3.73;;;2.70;;
64982;SDS011;69426;28.138;-15.436;2023-07-24T05:10:17;4.33;;;2.90;;
64982;SDS011;69426;28.138;-15.436;2023-07-24T05:12:42;4.90;;;2.70;;
64982;SDS011;69426;28.138;-15.436;2023-07-24T05:15:07;3.97;;;2.72;;
64982;SDS011;69426;28.138;-15.436;2023-07-24T05:17:33;6.05;;;3.22;;
64982;SDS011;69426;28.138;-15.436;2023-07-24T05:19:58;3.97;;;2.50;;
64982;SDS011;69426;28.138;-15.436;2023-07-24T05:22:23;4.03;;;2.50;;
64982;SDS011;69426;28.138;-15.436;2023-07-24T05:24:48;6.30;;;2.67;;
64982;SDS011;69426;28.138;-15.436;2023-07-24T05:27:14;4.20;;;2.60;;
64982;SDS011;69426;28.138;-15.436;2023-07-24T05:29:41;5.75;;;2.92;;
64982;SDS011;69426;28.138;-15.436;2023-07-24T05:32:06;3.20;;;2.63;;
64982;SDS011;69426;28.138;-15.436;2023-07-24T05:34:31;4.32;;;2.80;;
64982;SDS011;69426;28.138;-15.436;2023-07-24T05:36:57;3.95;;;2.70;;
64982;SDS011;69426;28.138;-15.436;2023-07-24T05:39:22;4.03;;;2.90;;
64982;SDS011;69426;28.138;-15.436;2023-07-24T05:41:47;8.00;;;2.90;;
64982;SDS011;69426;28.138;-15.436;2023-07-24T05:44:13;4.35;;;2.83;;
64982;SDS011;69426;28.138;-15.436;2023-07-24T05:46:39;9.80;;;2.88;;
64982;SDS011;69426;28.138;-15.436;2023-07-24T05:49:04;5.37;;;2.80;;
64982;SDS011;69426;28.138;-15.436;2023-07-24T05:51:29;5.78;;;2.80;;
64982;SDS011;69426;28.138;-15.436;2023-07-24T05:53:55;6.85;;;2.70;;
64982;SDS011;69426;28.138;-15.436;2023-07-24T05:56:20;4.73;;;2.67;;
64982;SDS011;69426;28.138;-15.436;2023-07-24T05:58:45;10.88;;;3.13;;
64982;SDS011;69426;28.138;-15.436;2023-07-24T06:01:11;7.85;;;2.75;;
64982;SDS011;69426;28.138;-15.436;2023-07-24T06:03:36;3.33;;;2.50;;
64982;SDS011;69426;28.138;-15.436;2023-07-24T06:06:01;10.48;;;3.00;;
64982;SDS011;69426;28.138;-15.436;2023-07-24T06:08:27;4.60;;;2.63;;
64982;SDS011;69426;28.138;-15.436;2023-07-24T06:10:52;6.17;;;2.73;;
64982;SDS011;69426;28.138;-15.436;2023-07-24T06:13:17;8.67;;;2.80;;
64982;SDS011;69426;28.138;-15.436;2023-07-24T06:15:43;4.85;;;2.60;;
64982;SDS011;69426;28.138;-15.436;2023-07-24T06:18:08;4.97;;;2.78;;
64982;SDS011;69426;28.138;-15.436;2023-07-24T06:20:34;4.70;;;2.70;;
64982;SDS011;69426;28.138;-15.436;2023-07-24T06:22:59;3.67;;;2.80;;
64982;SDS011;69426;28.138;-15.436;2023-07-24T06:25:24;6.07;;;2.80;;
64982;SDS011;69426;28.138;-15.436;2023-07-24T06:27:49;7.77;;;3.07;;
64982;SDS011;69426;28.138;-15.436;2023-07-24T06:30:15;6.47;;;2.50;;
64982;SDS011;69426;28.138;-15.436;2023-07-24T06:32:40;5.57;;;3.20;;
64982;SDS011;69426;28.138;-15.436;2023-07-24T06:35:05;6.63;;;3.10;;
64982;SDS011;69426;28.138;-15.436;2023-07-24T06:37:30;5.07;;;2.88;;
64982;SDS011;69426;28.138;-15.436;2023-07-24T06:39:56;5.47;;;3.00;;
64982;SDS011;69426;28.138;-15.436;2023-07-24T06:42:21;6.77;;;2.90;;
64982;SDS011;69426;28.138;-15.436;2023-07-24T06:44:46;6.97;;;3.13;;
64982;SDS011;69426;28.138;-15.436;2023-07-24T06:47:12;4.80;;;2.90;;
64982;SDS011;69426;28.138;-15.436;2023-07-24T06:49:37;5.57;;;3.07;;
64982;SDS011;69426;28.138;-15.436;2023-07-24T06:52:02;6.77;;;3.30;;
64982;SDS011;69426;28.138;-15.436;2023-07-24T06:54:27;5.43;;;2.90;;
64982;SDS011;69426;28.138;-15.436;2023-07-24T06:56:53;5.15;;;3.17;;
64982;SDS011;69426;28.138;-15.436;2023-07-24T06:59:18;5.57;;;3.33;;
64982;SDS011;69426;28.138;-15.436;2023-07-24T07:01:43;5.70;;;3.03;;
64982;SDS011;69426;28.138;-15.436;2023-07-24T07:04:08;6.37;;;3.00;;
64982;SDS011;69426;28.138;-15.436;2023-07-24T07:06:34;6.03;;;3.17;;
64982;SDS011;69426;28.138;-15.436;2023-07-24T07:08:59;11.20;;;3.50;;
64982;SDS011;69426;28.138;-15.436;2023-07-24T07:11:24;5.57;;;3.00;;
64982;SDS011;69426;28.138;-15.436;2023-07-24T07:13:49;8.63;;;3.47;;
64982;SDS011;69426;28.138;-15.436;2023-07-24T07:16:14;4.73;;;3.07;;
64982;SDS011;69426;28.138;-15.436;2023-07-24T07:18:41;6.25;;;3.17;;
64982;SDS011;69426;28.138;-15.436;2023-07-24T07:21:07;4.60;;;3.10;;
64982;SDS011;69426;28.138;-15.436;2023-07-24T07:23:32;7.90;;;3.00;;
64982;SDS011;69426;28.138;-15.436;2023-07-24T07:26:00;5.65;;;3.33;;
64982;SDS011;69426;28.138;-15.436;2023-07-24T07:28:25;5.32;;;3.20;;
64982;SDS011;69426;28.138;-15.436;2023-07-24T07:30:51;14.82;;;3.30;;
64982;SDS011;69426;28.138;-15.436;2023-07-24T07:33:16;6.80;;;3.33;;
64982;SDS011;69426;28.138;-15.436;2023-07-24T07:35:42;8.67;;;3.40;;
64982;SDS011;69426;28.138;-15.436;2023-07-24T07:38:07;8.88;;;3.45;;
64982;SDS011;69426;28.138;-15.436;2023-07-24T07:40:32;7.17;;;3.60;;
64982;SDS011;69426;28.138;-15.436;2023-07-24T07:42:58;8.17;;;3.50;;
64982;SDS011;69426;28.138;-15.436;2023-07-24T07:45:23;6.50;;;3.35;;
64982;SDS011;69426;28.138;-15.436;2023-07-24T07:47:49;8.20;;;3.70;;
64982;SDS011;69426;28.138;-15.436;2023-07-24T07:50:14;8.70;;;4.15;;
64982;SDS011;69426;28.138;-15.436;2023-07-24T07:52:39;6.97;;;3.70;;
64982;SDS011;69426;28.138;-15.436;2023-07-24T07:55:05;9.17;;;4.00;;
64982;SDS011;69426;28.138;-15.436;2023-07-24T07:57:36;7.13;;;3.60;;
64982;SDS011;69426;28.138;-15.436;2023-07-24T08:00:01;7.85;;;3.60;;
64982;SDS011;69426;28.138;-15.436;2023-07-24T08:02:27;10.77;;;3.78;;
64982;SDS011;69426;28.138;-15.436;2023-07-24T08:04:52;7.60;;;4.00;;
64982;SDS011;69426;28.138;-15.436;2023-07-24T08:07:17;5.40;;;3.50;;
64982;SDS011;69426;28.138;-15.436;2023-07-24T08:09:42;8.30;;;3.73;;
64982;SDS011;69426;28.138;-15.436;2023-07-24T08:12:08;8.87;;;3.53;;
64982;SDS011;69426;28.138;-15.436;2023-07-24T08:14:33;6.72;;;3.58;;
64982;SDS011;69426;28.138;-15.436;2023-07-24T08:16:58;7.93;;;3.70;;
64982;SDS011;69426;28.138;-15.436;2023-07-24T08:19:23;7.85;;;3.83;;
64982;SDS011;69426;28.138;-15.436;2023-07-24T08:21:52;5.25;;;3.50;;
64982;SDS011;69426;28.138;-15.436;2023-07-24T08:24:17;7.17;;;3.70;;
64982;SDS011;69426;28.138;-15.436;2023-07-24T08:26:43;5.77;;;3.23;;
64982;SDS011;69426;28.138;-15.436;2023-07-24T08:29:08;11.68;;;3.83;;
64982;SDS011;69426;28.138;-15.436;2023-07-24T08:31:33;10.67;;;3.57;;
64982;SDS011;69426;28.138;-15.436;2023-07-24T08:33:59;11.60;;;3.70;;
64982;SDS011;69426;28.138;-15.436;2023-07-24T08:36:24;8.53;;;3.60;;
64982;SDS011;69426;28.138;-15.436;2023-07-24T08:38:49;10.20;;;3.80;;
64982;SDS011;69426;28.138;-15.436;2023-07-24T08:41:14;8.87;;;3.43;;
64982;SDS011;69426;28.138;-15.436;2023-07-24T08:43:41;9.07;;;3.40;;
64982;SDS011;69426;28.138;-15.436;2023-07-24T08:46:07;5.82;;;3.28;;
64982;SDS011;69426;28.138;-15.436;2023-07-24T08:48:33;7.30;;;3.72;;
64982;SDS011;69426;28.138;-15.436;2023-07-24T08:51:01;12.27;;;3.63;;
64982;SDS011;69426;28.138;-15.436;2023-07-24T08:53:27;7.63;;;3.22;;
64982;SDS011;69426;28.138;-15.436;2023-07-24T08:55:53;7.13;;;3.42;;
64982;SDS011;69426;28.138;-15.436;2023-07-24T08:58:19;7.90;;;3.67;;
64982;SDS011;69426;28.138;-15.436;2023-07-24T09:00:45;9.45;;;3.70;;
64982;SDS011;69426;28.138;-15.436;2023-07-24T09:03:10;8.87;;;3.30;;
64982;SDS011;69426;28.138;-15.436;2023-07-24T09:05:35;4.97;;;3.40;;
64982;SDS011;69426;28.138;-15.436;2023-07-24T09:08:01;14.23;;;3.40;;
64982;SDS011;69426;28.138;-15.436;2023-07-24T09:10:26;9.97;;;3.93;;
64982;SDS011;69426;28.138;-15.436;2023-07-24T09:12:51;5.13;;;3.33;;
64982;SDS011;69426;28.138;-15.436;2023-07-24T09:15:17;6.35;;;3.58;;
64982;SDS011;69426;28.138;-15.436;2023-07-24T09:17:49;8.10;;;3.53;;
64982;SDS011;69426;28.138;-15.436;2023-07-24T09:20:14;7.55;;;3.60;;
64982;SDS011;69426;28.138;-15.436;2023-07-24T09:22:47;6.55;;;3.20;;
64982;SDS011;69426;28.138;-15.436;2023-07-24T09:25:12;7.15;;;3.63;;
64982;SDS011;69426;28.138;-15.436;2023-07-24T09:27:38;7.27;;;3.50;;
64982;SDS011;69426;28.138;-15.436;2023-07-24T09:30:11;9.87;;;3.50;;
64982;SDS011;69426;28.138;-15.436;2023-07-24T09:32:36;7.05;;;3.88;;
64982;SDS011;69426;28.138;-15.436;2023-07-24T09:35:03;6.70;;;3.30;;
64982;SDS011;69426;28.138;-15.436;2023-07-24T09:37:32;8.13;;;3.60;;
64982;SDS011;69426;28.138;-15.436;2023-07-24T09:39:57;6.32;;;3.55;;
64982;SDS011;69426;28.138;-15.436;2023-07-24T09:42:29;5.63;;;3.20;;
64982;SDS011;69426;28.138;-15.436;2023-07-24T09:44:54;5.83;;;3.47;;
64982;SDS011;69426;28.138;-15.436;2023-07-24T09:47:19;6.17;;;3.47;;
64982;SDS011;69426;28.138;-15.436;2023-07-24T09:49:44;6.17;;;3.30;;
64982;SDS011;69426;28.138;-15.436;2023-07-24T09:52:10;7.05;;;3.47;;
64982;SDS011;69426;28.138;-15.436;2023-07-24T09:54:37;5.50;;;3.42;;
64982;SDS011;69426;28.138;-15.436;2023-07-24T09:57:06;6.97;;;3.53;;
64982;SDS011;69426;28.138;-15.436;2023-07-24T09:59:33;7.50;;;3.20;;
64982;SDS011;69426;28.138;-15.436;2023-07-24T10:01:59;7.40;;;3.80;;
64982;SDS011;69426;28.138;-15.436;2023-07-24T10:04:24;10.57;;;3.10;;
64982;SDS011;69426;28.138;-15.436;2023-07-24T10:06:50;6.68;;;3.30;;
64982;SDS011;69426;28.138;-15.436;2023-07-24T10:09:15;8.50;;;3.35;;
64982;SDS011;69426;28.138;-15.436;2023-07-24T10:11:41;8.80;;;3.42;;
64982;SDS011;69426;28.138;-15.436;2023-07-24T10:14:06;9.90;;;3.50;;
64982;SDS011;69426;28.138;-15.436;2023-07-24T10:16:32;11.57;;;3.40;;
64982;SDS011;69426;28.138;-15.436;2023-07-24T10:18:57;5.25;;;3.25;;
64982;SDS011;69426;28.138;-15.436;2023-07-24T10:21:26;5.10;;;3.33;;
64982;SDS011;69426;28.138;-15.436;2023-07-24T10:23:52;11.98;;;3.50;;
64982;SDS011;69426;28.138;-15.436;2023-07-24T10:26:23;10.40;;;3.27;;
64982;SDS011;69426;28.138;-15.436;2023-07-24T10:28:49;6.63;;;3.00;;
64982;SDS011;69426;28.138;-15.436;2023-07-24T10:31:22;6.05;;;3.17;;
64982;SDS011;69426;28.138;-15.436;2023-07-24T10:33:47;4.82;;;2.88;;
64982;SDS011;69426;28.138;-15.436;2023-07-24T10:36:16;7.53;;;2.90;;
64982;SDS011;69426;28.138;-15.436;2023-07-24T10:38:43;8.00;;;3.13;;
64982;SDS011;69426;28.138;-15.436;2023-07-24T10:41:09;5.77;;;2.93;;
64982;SDS011;69426;28.138;-15.436;2023-07-24T10:43:42;7.03;;;2.90;;
64982;SDS011;69426;28.138;-15.436;2023-07-24T10:48:32;6.18;;;3.10;;
64982;SDS011;69426;28.138;-15.436;2023-07-24T10:50:57;11.93;;;3.57;;
64982;SDS011;69426;28.138;-15.436;2023-07-24T10:53:23;7.47;;;3.10;;
64982;SDS011;69426;28.138;-15.436;2023-07-24T10:55:48;5.70;;;3.22;;
64982;SDS011;69426;28.138;-15.436;2023-07-24T10:58:15;7.80;;;2.67;;
64982;SDS011;69426;28.138;-15.436;2023-07-24T11:00:41;6.90;;;3.10;;
64982;SDS011;69426;28.138;-15.436;2023-07-24T11:03:13;4.43;;;3.05;;
64982;SDS011;69426;28.138;-15.436;2023-07-24T11:05:46;4.97;;;3.05;;
64982;SDS011;69426;28.138;-15.436;2023-07-24T11:08:12;6.47;;;3.00;;
64982;SDS011;69426;28.138;-15.436;2023-07-24T11:13:12;4.82;;;3.42;;
64982;SDS011;69426;28.138;-15.436;2023-07-24T11:15:37;5.40;;;3.25;;
64982;SDS011;69426;28.138;-15.436;2023-07-24T11:18:03;5.83;;;3.30;;
64982;SDS011;69426;28.138;-15.436;2023-07-24T11:20:29;6.40;;;3.55;;
64982;SDS011;69426;28.138;-15.436;2023-07-24T11:22:57;6.33;;;3.40;;
64982;SDS011;69426;28.138;-15.436;2023-07-24T11:25:22;8.00;;;3.40;;
64982;SDS011;69426;28.138;-15.436;2023-07-24T11:27:47;9.27;;;3.67;;
64982;SDS011;69426;28.138;-15.436;2023-07-24T11:30:18;6.60;;;3.50;;
64982;SDS011;69426;28.138;-15.436;2023-07-24T11:32:44;5.47;;;3.90;;
64982;SDS011;69426;28.138;-15.436;2023-07-24T11:35:09;6.75;;;3.60;;
64982;SDS011;69426;28.138;-15.436;2023-07-24T11:37:35;6.60;;;3.88;;
64982;SDS011;69426;28.138;-15.436;2023-07-24T11:40:02;5.50;;;3.55;;
64982;SDS011;69426;28.138;-15.436;2023-07-24T11:42:29;6.82;;;3.28;;
64982;SDS011;69426;28.138;-15.436;2023-07-24T11:44:55;6.88;;;3.33;;
64982;SDS011;69426;28.138;-15.436;2023-07-24T11:47:20;5.50;;;3.50;;
64982;SDS011;69426;28.138;-15.436;2023-07-24T11:50:03;5.55;;;3.45;;
64982;SDS011;69426;28.138;-15.436;2023-07-24T11:52:39;8.32;;;3.58;;
64982;SDS011;69426;28.138;-15.436;2023-07-24T11:55:05;10.35;;;3.97;;
64982;SDS011;69426;28.138;-15.436;2023-07-24T11:57:30;9.95;;;3.72;;
64982;SDS011;69426;28.138;-15.436;2023-07-24T11:59:55;16.30;;;3.87;;
64982;SDS011;69426;28.138;-15.436;2023-07-24T12:02:25;12.80;;;3.58;;
64982;SDS011;69426;28.138;-15.436;2023-07-24T12:04:53;9.57;;;4.25;;
64982;SDS011;69426;28.138;-15.436;2023-07-24T12:07:19;8.15;;;4.00;;
64982;SDS011;69426;28.138;-15.436;2023-07-24T12:09:50;15.52;;;4.28;;
64982;SDS011;69426;28.138;-15.436;2023-07-24T12:12:15;14.05;;;4.15;;
64982;SDS011;69426;28.138;-15.436;2023-07-24T12:14:42;8.75;;;4.07;;
64982;SDS011;69426;28.138;-15.436;2023-07-24T12:17:07;7.60;;;3.80;;
64982;SDS011;69426;28.138;-15.436;2023-07-24T12:19:35;10.25;;;3.83;;
64982;SDS011;69426;28.138;-15.436;2023-07-24T12:22:01;6.35;;;3.72;;
64982;SDS011;69426;28.138;-15.436;2023-07-24T12:24:28;7.25;;;4.22;;
64982;SDS011;69426;28.138;-15.436;2023-07-24T12:26:53;9.17;;;4.30;;
64982;SDS011;69426;28.138;-15.436;2023-07-24T12:29:18;9.60;;;4.17;;
64982;SDS011;69426;28.138;-15.436;2023-07-24T12:31:44;6.80;;;3.77;;
64982;SDS011;69426;28.138;-15.436;2023-07-24T12:34:09;16.47;;;4.20;;
64982;SDS011;69426;28.138;-15.436;2023-07-24T12:36:34;5.63;;;4.00;;
64982;SDS011;69426;28.138;-15.436;2023-07-24T12:38:59;7.00;;;4.13;;
64982;SDS011;69426;28.138;-15.436;2023-07-24T12:41:25;4.97;;;3.43;;
64982;SDS011;69426;28.138;-15.436;2023-07-24T12:43:50;5.97;;;3.90;;
64982;SDS011;69426;28.138;-15.436;2023-07-24T12:46:15;5.37;;;3.63;;
64982;SDS011;69426;28.138;-15.436;2023-07-24T12:48:40;7.13;;;3.80;;
64982;SDS011;69426;28.138;-15.436;2023-07-24T12:51:05;7.90;;;3.70;;
64982;SDS011;69426;28.138;-15.436;2023-07-24T12:53:31;12.07;;;3.90;;
64982;SDS011;69426;28.138;-15.436;2023-07-24T12:55:56;13.13;;;4.30;;
64982;SDS011;69426;28.138;-15.436;2023-07-24T12:58:21;9.43;;;3.93;;
64982;SDS011;69426;28.138;-15.436;2023-07-24T13:00:46;10.57;;;4.03;;
64982;SDS011;69426;28.138;-15.436;2023-07-24T13:03:12;9.27;;;3.83;;
64982;SDS011;69426;28.138;-15.436;2023-07-24T13:05:37;7.00;;;3.97;;
64982;SDS011;69426;28.138;-15.436;2023-07-24T13:08:03;7.05;;;3.88;;
64982;SDS011;69426;28.138;-15.436;2023-07-24T13:10:28;6.63;;;4.00;;
64982;SDS011;69426;28.138;-15.436;2023-07-24T13:12:53;6.63;;;3.87;;
64982;SDS011;69426;28.138;-15.436;2023-07-24T13:15:18;7.60;;;3.60;;
64982;SDS011;69426;28.138;-15.436;2023-07-24T13:17:44;9.47;;;3.77;;
64982;SDS011;69426;28.138;-15.436;2023-07-24T13:20:09;5.93;;;3.70;;
64982;SDS011;69426;28.138;-15.436;2023-07-24T13:22:34;6.88;;;4.05;;
64982;SDS011;69426;28.138;-15.436;2023-07-24T13:25:00;8.27;;;3.80;;
64982;SDS011;69426;28.138;-15.436;2023-07-24T13:27:25;4.93;;;3.70;;
64982;SDS011;69426;28.138;-15.436;2023-07-24T13:29:50;6.33;;;3.80;;
64982;SDS011;69426;28.138;-15.436;2023-07-24T13:32:15;5.80;;;3.80;;
64982;SDS011;69426;28.138;-15.436;2023-07-24T13:34:41;6.15;;;3.85;;
64982;SDS011;69426;28.138;-15.436;2023-07-24T13:37:06;6.57;;;3.80;;
64982;SDS011;69426;28.138;-15.436;2023-07-24T13:39:31;6.77;;;3.60;;
64982;SDS011;69426;28.138;-15.436;2023-07-24T13:41:58;6.95;;;4.00;;
64982;SDS011;69426;28.138;-15.436;2023-07-24T13:44:24;6.55;;;3.60;;
64982;SDS011;69426;28.138;-15.436;2023-07-24T13:46:49;5.33;;;3.63;;
64982;SDS011;69426;28.138;-15.436;2023-07-24T13:49:14;7.07;;;3.70;;
64982;SDS011;69426;28.138;-15.436;2023-07-24T13:51:40;7.73;;;3.43;;
64982;SDS011;69426;28.138;-15.436;2023-07-24T13:54:05;6.23;;;3.80;;
64982;SDS011;69426;28.138;-15.436;2023-07-24T13:56:30;5.37;;;3.57;;
64982;SDS011;69426;28.138;-15.436;2023-07-24T13:58:58;6.82;;;3.35;;
64982;SDS011;69426;28.138;-15.436;2023-07-24T14:01:23;7.45;;;3.25;;
64982;SDS011;69426;28.138;-15.436;2023-07-24T14:03:49;6.73;;;3.40;;
64982;SDS011;69426;28.138;-15.436;2023-07-24T14:06:14;6.07;;;3.70;;
64982;SDS011;69426;28.138;-15.436;2023-07-24T14:08:39;6.80;;;3.60;;
64982;SDS011;69426;28.138;-15.436;2023-07-24T14:11:04;6.27;;;3.87;;
64982;SDS011;69426;28.138;-15.436;2023-07-24T14:13:30;5.70;;;3.70;;
64982;SDS011;69426;28.138;-15.436;2023-07-24T14:15:55;6.20;;;3.73;;
64982;SDS011;69426;28.138;-15.436;2023-07-24T14:18:20;8.00;;;3.90;;
64982;SDS011;69426;28.138;-15.436;2023-07-24T14:20:46;13.50;;;4.03;;
64982;SDS011;69426;28.138;-15.436;2023-07-24T14:23:12;14.35;;;4.90;;